createdAt,value
2019-04-27T00:01:24.685Z,0.00
2019-04-27T00:02:26.519Z,0.00
2019-04-27T00:04:29.116Z,0.00
2019-04-27T00:05:32.329Z,0.00
2019-04-27T00:07:33.755Z,0.00
2019-04-27T00:08:38.760Z,0.00
2019-04-27T00:10:37.908Z,0.00
2019-04-27T00:11:42.195Z,0.00
2019-04-27T00:13:43.983Z,0.00
2019-04-27T00:14:43.902Z,0.00
2019-04-27T00:16:50.504Z,0.00
2019-04-27T00:17:49.289Z,0.00
2019-04-27T00:19:51.110Z,0.00
2019-04-27T00:20:51.339Z,0.00
2019-04-27T00:22:55.515Z,0.00
2019-04-27T00:23:55.750Z,0.28
2019-04-27T00:25:59.904Z,0.85
2019-04-27T00:27:00.140Z,0.95
2019-04-27T00:29:04.308Z,1.32
2019-04-27T00:30:04.545Z,1.14
2019-04-27T00:31:57.617Z,1.80
2019-04-27T00:32:57.852Z,2.37
2019-04-27T00:35:03.764Z,3.61
2019-04-27T00:36:03.039Z,3.99
2019-04-27T00:38:06.425Z,5.51
2019-04-27T00:39:06.671Z,6.36
2019-04-27T00:41:10.815Z,7.69
2019-04-27T00:42:11.047Z,8.64
2019-04-27T00:44:15.220Z,9.97
2019-04-27T00:45:15.454Z,10.25
2019-04-27T00:47:19.596Z,11.96
2019-04-27T00:48:19.837Z,12.35
2019-04-27T00:50:24.012Z,13.58
2019-04-27T00:51:24.244Z,13.68
2019-04-27T00:53:28.418Z,15.20
2019-04-27T00:54:28.653Z,15.67
2019-04-27T00:56:33.842Z,16.81
2019-04-27T00:57:33.319Z,17.29
2019-04-27T00:59:37.203Z,18.24
2019-04-27T01:00:37.438Z,19.09
2019-04-27T01:02:43.430Z,20.70
2019-04-27T01:03:43.075Z,21.56
2019-04-27T01:05:45.995Z,22.70
2019-04-27T01:06:46.242Z,23.36
2019-04-27T01:08:50.399Z,23.84
2019-04-27T01:09:50.637Z,24.51
2019-04-27T01:11:43.717Z,25.46
2019-04-27T01:12:43.954Z,26.42
2019-04-27T01:14:48.129Z,27.27
2019-04-27T01:15:48.374Z,28.03
2019-04-27T01:17:52.514Z,28.70
2019-04-27T01:18:52.753Z,29.36
2019-04-27T01:20:56.920Z,30.31
2019-04-27T01:21:58.572Z,31.45
2019-04-27T01:24:01.324Z,32.50
2019-04-27T01:25:01.560Z,33.64
2019-04-27T01:27:05.705Z,34.40
2019-04-27T01:28:05.943Z,35.25
2019-04-27T01:30:10.123Z,36.30
2019-04-27T01:31:10.349Z,37.06
2019-04-27T01:33:14.501Z,37.46
2019-04-27T01:34:14.736Z,38.03
2019-04-27T01:36:19.076Z,38.89
2019-04-27T01:37:19.704Z,39.74
2019-04-27T01:39:23.318Z,40.22
2019-04-27T01:40:23.557Z,40.98
2019-04-27T01:42:29.389Z,41.64
2019-04-27T01:43:28.503Z,41.74
2019-04-27T01:45:32.106Z,42.40
2019-04-27T01:46:32.341Z,43.16
2019-04-27T01:48:36.491Z,43.26
2019-04-27T01:49:36.733Z,43.83
2019-04-27T01:51:29.834Z,44.78
2019-04-27T01:52:30.898Z,44.68
2019-04-27T01:54:34.243Z,45.26
2019-04-27T01:55:34.479Z,45.64
2019-04-27T01:57:38.731Z,46.20
2019-04-27T01:58:39.301Z,46.20
2019-04-27T02:00:43.037Z,46.59
2019-04-27T02:01:43.272Z,47.06
2019-04-27T02:03:48.881Z,47.34
2019-04-27T02:04:49.323Z,47.54
2019-04-27T02:06:51.830Z,48.30
2019-04-27T02:07:52.071Z,48.39
2019-04-27T02:09:56.233Z,49.15
2019-04-27T02:10:56.470Z,49.54
2019-04-27T02:13:00.625Z,50.77
2019-04-27T02:14:00.862Z,50.48
2019-04-27T02:16:05.032Z,51.08
2019-04-27T02:17:05.266Z,51.65
2019-04-27T02:19:11.344Z,52.20
2019-04-27T02:20:09.805Z,53.15
2019-04-27T02:22:13.829Z,54.29
2019-04-27T02:23:14.064Z,54.67
2019-04-27T02:25:18.924Z,54.96
2019-04-27T02:26:19.233Z,55.05
2019-04-27T02:28:22.627Z,55.43
2019-04-27T02:29:22.863Z,55.90
2019-04-27T02:31:15.968Z,56.10
2019-04-27T02:32:16.210Z,56.85
2019-04-27T02:34:20.359Z,56.38
2019-04-27T02:35:20.595Z,56.48
2019-04-27T02:37:24.770Z,56.67
2019-04-27T02:38:25.006Z,56.85
2019-04-27T02:40:30.532Z,57.33
2019-04-27T02:41:29.809Z,57.14
2019-04-27T02:43:33.566Z,57.90
2019-04-27T02:44:33.803Z,58.66
2019-04-27T02:46:39.507Z,58.95
2019-04-27T02:47:40.692Z,58.85
2019-04-27T02:49:42.357Z,59.33
2019-04-27T02:50:42.599Z,59.42
2019-04-27T02:52:46.769Z,58.66
2019-04-27T02:53:47.007Z,58.76
2019-04-27T02:55:51.178Z,58.66
2019-04-27T02:56:52.644Z,58.47
2019-04-27T02:58:55.570Z,58.95
2019-04-27T02:59:55.805Z,58.95
2019-04-27T03:01:50.360Z,59.05
2019-04-27T03:02:51.058Z,58.57
2019-04-27T03:04:53.300Z,58.85
2019-04-27T03:05:53.539Z,59.14
2019-04-27T03:07:59.776Z,58.76
2019-04-27T03:09:00.511Z,58.83
2019-04-27T03:11:02.121Z,59.05
2019-04-27T03:12:02.365Z,59.30
2019-04-27T03:14:06.507Z,59.01
2019-04-27T03:15:06.741Z,59.39
2019-04-27T03:17:10.916Z,60.35
2019-04-27T03:18:11.150Z,61.10
2019-04-27T03:20:15.308Z,61.68
2019-04-27T03:21:15.549Z,61.87
2019-04-27T03:23:20.048Z,62.24
2019-04-27T03:24:22.800Z,62.43
2019-04-27T03:26:24.127Z,62.81
2019-04-27T03:27:24.361Z,62.91
2019-04-27T03:29:30.626Z,62.91
2019-04-27T03:30:31.762Z,62.91
2019-04-27T03:32:32.975Z,63.01
2019-04-27T03:33:33.247Z,63.57
2019-04-27T03:35:41.447Z,63.48
2019-04-27T03:36:39.566Z,63.48
2019-04-27T03:38:41.720Z,63.48
2019-04-27T03:39:41.956Z,64.24
2019-04-27T03:41:35.060Z,64.81
2019-04-27T03:42:37.336Z,64.81
2019-04-27T03:44:39.905Z,64.81
2019-04-27T03:45:40.068Z,65.28
2019-04-27T03:47:43.855Z,65.19
2019-04-27T03:48:44.089Z,65.19
2019-04-27T03:50:50.626Z,66.05
2019-04-27T03:51:49.944Z,65.86
2019-04-27T03:53:52.648Z,66.24
2019-04-27T03:54:52.887Z,66.42
2019-04-27T03:56:59.448Z,66.61
2019-04-27T03:57:57.286Z,66.90
2019-04-27T04:00:01.463Z,67.09
2019-04-27T04:01:01.672Z,67.47
2019-04-27T04:03:05.850Z,67.38
2019-04-27T04:04:06.086Z,67.76
2019-04-27T04:06:10.895Z,68.71
2019-04-27T04:07:10.471Z,68.33
2019-04-27T04:09:14.650Z,68.71
2019-04-27T04:10:14.885Z,68.99
2019-04-27T04:12:19.811Z,69.46
2019-04-27T04:13:22.265Z,69.46
2019-04-27T04:15:23.451Z,69.66
2019-04-27T04:16:23.687Z,69.75
2019-04-27T04:18:29.354Z,70.42
2019-04-27T04:19:31.502Z,70.23
2019-04-27T04:21:21.190Z,71.43
2019-04-27T04:22:21.430Z,71.08
2019-04-27T04:24:28.657Z,71.43
2019-04-27T04:25:25.830Z,71.71
2019-04-27T04:27:30.140Z,72.75
2019-04-27T04:28:30.242Z,72.95
2019-04-27T04:30:34.403Z,73.61
2019-04-27T04:31:34.659Z,73.61
2019-04-27T04:33:40.301Z,74.66
2019-04-27T04:34:39.962Z,75.13
2019-04-27T04:36:43.241Z,75.32
2019-04-27T04:37:43.476Z,75.60
2019-04-27T04:39:51.018Z,75.51
2019-04-27T04:40:50.164Z,75.60
2019-04-27T04:42:52.059Z,76.65
2019-04-27T04:43:52.293Z,76.56
2019-04-27T04:45:56.452Z,77.89
2019-04-27T04:46:56.687Z,77.60
2019-04-27T04:49:00.867Z,79.22
2019-04-27T04:50:11.318Z,78.74
2019-04-27T04:51:54.183Z,79.97
2019-04-27T04:52:54.417Z,80.16
2019-04-27T04:54:59.376Z,81.12
2019-04-27T04:56:00.357Z,80.74
2019-04-27T04:58:03.003Z,81.21
2019-04-27T04:59:03.237Z,81.44
2019-04-27T05:01:09.723Z,82.16
2019-04-27T05:02:07.630Z,82.77
2019-04-27T05:04:11.810Z,83.91
2019-04-27T05:05:12.052Z,84.20
2019-04-27T05:07:16.234Z,85.05
2019-04-27T05:08:16.472Z,85.58
2019-04-27T05:10:20.625Z,86.00
2019-04-27T05:11:20.860Z,86.10
2019-04-27T05:13:25.030Z,87.14
2019-04-27T05:14:25.271Z,87.24
2019-04-27T05:16:29.417Z,87.24
2019-04-27T05:17:29.759Z,88.00
2019-04-27T05:19:33.840Z,89.04
2019-04-27T05:20:34.074Z,89.80
2019-04-27T05:22:39.330Z,91.61
2019-04-27T05:23:38.832Z,91.80
2019-04-27T05:25:42.641Z,94.27
2019-04-27T05:26:42.873Z,94.74
2019-04-27T05:28:49.106Z,96.84
2019-04-27T05:29:48.839Z,97.22
2019-04-27T05:31:40.370Z,99.21
2019-04-27T05:32:40.604Z,99.99
2019-04-27T05:34:45.270Z,99.99
2019-04-27T05:35:45.515Z,99.99
2019-04-27T05:37:50.174Z,99.99
2019-04-27T05:38:50.406Z,99.99
2019-04-27T05:40:54.562Z,99.99
2019-04-27T05:41:54.796Z,99.99
2019-04-27T05:43:59.233Z,99.99
2019-04-27T05:44:59.205Z,99.99
2019-04-27T05:47:05.293Z,99.99
2019-04-27T05:48:03.608Z,99.99
2019-04-27T05:50:09.070Z,99.99
2019-04-27T05:51:09.177Z,99.99
2019-04-27T05:53:12.171Z,99.99
2019-04-27T05:54:12.406Z,99.99
2019-04-27T05:56:16.584Z,99.99
2019-04-27T05:57:16.823Z,99.99
2019-04-27T05:59:21.008Z,99.99
2019-04-27T06:00:21.244Z,99.99
2019-04-27T06:02:25.410Z,99.99
2019-04-27T06:03:25.657Z,99.99
2019-04-27T06:05:29.823Z,99.99
2019-04-27T06:06:30.062Z,99.99
2019-04-27T06:08:34.245Z,99.99
2019-04-27T06:09:34.481Z,99.99
2019-04-27T06:11:28.608Z,99.99
2019-04-27T06:12:29.411Z,99.99
2019-04-27T06:14:31.978Z,99.99
2019-04-27T06:15:32.215Z,99.99
2019-04-27T06:17:36.371Z,99.99
2019-04-27T06:18:36.609Z,99.99
2019-04-27T06:20:51.262Z,99.99
2019-04-27T06:21:41.023Z,99.99
2019-04-27T06:23:45.207Z,99.99
2019-04-27T06:24:45.447Z,99.99
2019-04-27T06:26:49.927Z,99.99
2019-04-27T06:27:49.841Z,99.99
2019-04-27T06:29:54.020Z,99.99
2019-04-27T06:30:54.258Z,99.99
2019-04-27T06:32:59.465Z,99.99
2019-04-27T06:33:59.708Z,99.99
2019-04-27T06:36:02.831Z,99.99
2019-04-27T06:37:03.068Z,99.99
2019-04-27T06:39:07.268Z,98.56
2019-04-27T06:40:07.501Z,98.08
2019-04-27T06:42:18.225Z,96.65
2019-04-27T06:43:11.884Z,94.89
2019-04-27T06:45:16.060Z,92.03
2019-04-27T06:46:16.297Z,90.36
2019-04-27T06:48:20.452Z,86.72
2019-04-27T06:49:20.690Z,85.75
2019-04-27T06:51:13.795Z,81.04
2019-04-27T06:52:14.034Z,81.48
2019-04-27T06:54:21.051Z,82.71
2019-04-27T06:55:18.851Z,83.13
2019-04-27T06:57:22.609Z,80.57
2019-04-27T06:58:22.850Z,79.80
2019-04-27T07:00:28.761Z,81.76
2019-04-27T07:01:27.262Z,80.19
2019-04-27T07:03:31.423Z,80.33
2019-04-27T07:04:31.664Z,80.24
2019-04-27T07:06:35.839Z,81.18
2019-04-27T07:07:36.079Z,81.22
2019-04-27T07:09:40.255Z,81.40
2019-04-27T07:10:40.495Z,80.92
2019-04-27T07:12:44.656Z,81.10
2019-04-27T07:13:44.897Z,80.62
2019-04-27T07:15:49.077Z,77.84
2019-04-27T07:16:50.868Z,77.36
2019-04-27T07:18:53.474Z,79.60
2019-04-27T07:19:53.714Z,79.41
2019-04-27T07:21:46.821Z,76.20
2019-04-27T07:22:47.068Z,73.12
2019-04-27T07:24:51.224Z,79.12
2019-04-27T07:25:51.465Z,79.44
2019-04-27T07:27:55.653Z,78.16
2019-04-27T07:28:55.896Z,80.63
2019-04-27T07:31:00.075Z,77.90
2019-04-27T07:32:00.318Z,78.57
2019-04-27T07:34:04.480Z,79.74
2019-04-27T07:35:04.724Z,79.21
2019-04-27T07:37:09.363Z,78.07
2019-04-27T07:38:09.925Z,77.78
2019-04-27T07:40:13.335Z,78.59
2019-04-27T07:41:13.576Z,79.24
2019-04-27T07:43:18.781Z,77.65
2019-04-27T07:44:19.340Z,75.85
2019-04-27T07:46:22.158Z,75.83
2019-04-27T07:47:22.402Z,79.39
2019-04-27T07:49:26.562Z,77.09
2019-04-27T07:50:26.805Z,77.26
2019-04-27T07:52:30.988Z,76.09
2019-04-27T07:53:31.232Z,75.62
2019-04-27T07:55:35.414Z,74.90
2019-04-27T07:56:35.659Z,74.16
2019-04-27T07:58:39.822Z,75.79
2019-04-27T07:59:42.095Z,74.63
2019-04-27T08:01:33.174Z,73.35
2019-04-27T08:02:33.420Z,73.86
2019-04-27T08:04:37.583Z,73.15
2019-04-27T08:05:39.157Z,74.55
2019-04-27T08:07:42.013Z,73.45
2019-04-27T08:08:42.258Z,74.22
2019-04-27T08:10:48.445Z,74.72
2019-04-27T08:11:46.688Z,75.83
2019-04-27T08:13:50.847Z,75.68
2019-04-27T08:14:51.095Z,76.29
2019-04-27T08:16:55.281Z,74.74
2019-04-27T08:17:55.526Z,75.37
2019-04-27T08:19:59.737Z,77.28
2019-04-27T08:20:59.930Z,77.67
2019-04-27T08:23:04.116Z,77.48
2019-04-27T08:24:04.364Z,78.76
2019-04-27T08:26:08.824Z,76.71
2019-04-27T08:27:09.421Z,79.57
2019-04-27T08:29:12.958Z,76.98
2019-04-27T08:30:13.194Z,76.60
2019-04-27T08:32:17.378Z,76.27
2019-04-27T08:33:19.048Z,77.76
2019-04-27T08:35:21.785Z,76.69
2019-04-27T08:36:22.029Z,77.63
2019-04-27T08:38:26.213Z,77.11
2019-04-27T08:39:26.454Z,75.94
2019-04-27T08:41:21.223Z,73.04
2019-04-27T08:42:19.807Z,75.48
2019-04-27T08:44:23.968Z,74.79
2019-04-27T08:45:24.213Z,73.46
2019-04-27T08:47:29.331Z,74.54
2019-04-27T08:48:34.641Z,73.67
2019-04-27T08:50:32.809Z,72.33
2019-04-27T08:51:33.054Z,71.40
2019-04-27T08:53:37.241Z,71.78
2019-04-27T08:54:39.244Z,70.59
2019-04-27T08:56:41.680Z,72.42
2019-04-27T08:57:41.927Z,71.55
2019-04-27T08:59:46.098Z,72.07
2019-04-27T09:00:46.345Z,70.24
2019-04-27T09:02:50.554Z,69.73
2019-04-27T09:03:50.785Z,68.48
2019-04-27T09:05:54.983Z,69.29
2019-04-27T09:06:55.294Z,68.00
2019-04-27T09:08:59.402Z,66.52
2019-04-27T09:09:59.703Z,67.10
2019-04-27T09:11:52.767Z,69.33
2019-04-27T09:12:53.727Z,71.75
2019-04-27T09:14:59.108Z,73.88
2019-04-27T09:15:57.429Z,74.57
2019-04-27T09:18:01.622Z,73.67
2019-04-27T09:19:01.869Z,75.49
2019-04-27T09:21:06.061Z,77.25
2019-04-27T09:22:13.585Z,78.03
2019-04-27T09:24:10.483Z,76.86
2019-04-27T09:25:10.727Z,76.02
2019-04-27T09:27:17.185Z,73.50
2019-04-27T09:28:15.155Z,72.16
2019-04-27T09:30:19.322Z,72.34
2019-04-27T09:31:19.690Z,74.02
2019-04-27T09:33:23.761Z,70.62
2019-04-27T09:34:24.005Z,71.52
2019-04-27T09:36:28.194Z,70.21
2019-04-27T09:37:28.438Z,69.67
2019-04-27T09:39:32.601Z,69.18
2019-04-27T09:40:32.848Z,68.38
2019-04-27T09:42:38.339Z,71.92
2019-04-27T09:43:37.282Z,74.04
2019-04-27T09:45:41.455Z,70.99
2019-04-27T09:46:41.704Z,72.66
2019-04-27T09:48:46.585Z,73.94
2019-04-27T09:49:46.257Z,73.19
2019-04-27T09:51:39.261Z,71.55
2019-04-27T09:52:39.506Z,70.74
2019-04-27T09:54:43.677Z,70.97
2019-04-27T09:55:43.925Z,70.36
2019-04-27T09:57:48.118Z,72.64
2019-04-27T09:58:48.357Z,73.66
2019-04-27T10:00:52.524Z,73.63
2019-04-27T10:01:52.770Z,73.02
2019-04-27T10:03:56.971Z,73.97
2019-04-27T10:04:57.213Z,74.13
2019-04-27T10:07:01.415Z,73.94
2019-04-27T10:08:01.658Z,75.37
2019-04-27T10:10:06.440Z,75.18
2019-04-27T10:11:06.110Z,74.70
2019-04-27T10:13:10.259Z,74.90
2019-04-27T10:14:10.504Z,74.99
2019-04-27T10:16:14.678Z,74.90
2019-04-27T10:17:14.922Z,75.66
2019-04-27T10:19:28.707Z,74.70
2019-04-27T10:20:20.017Z,75.66
2019-04-27T10:22:27.546Z,74.61
2019-04-27T10:23:23.768Z,76.23
2019-04-27T10:25:27.930Z,76.23
2019-04-27T10:26:28.170Z,74.80
2019-04-27T10:28:32.355Z,74.22
2019-04-27T10:29:32.598Z,75.18
2019-04-27T10:31:25.690Z,74.80
2019-04-27T10:32:26.173Z,74.61
2019-04-27T10:34:30.119Z,75.37
2019-04-27T10:35:30.363Z,74.70
2019-04-27T10:37:34.542Z,74.95
2019-04-27T10:38:35.993Z,74.85
2019-04-27T10:40:38.947Z,74.24
2019-04-27T10:41:39.189Z,75.49
2019-04-27T10:43:43.369Z,74.53
2019-04-27T10:44:43.608Z,74.30
2019-04-27T10:46:47.773Z,74.30
2019-04-27T10:47:49.515Z,73.44
2019-04-27T10:49:52.184Z,73.50
2019-04-27T10:50:52.425Z,74.74
2019-04-27T10:52:59.254Z,71.98
2019-04-27T10:53:56.840Z,71.94
2019-04-27T10:56:00.995Z,69.08
2019-04-27T10:57:01.235Z,68.22
2019-04-27T10:59:06.234Z,67.61
2019-04-27T11:00:06.703Z,67.99
2019-04-27T11:01:58.735Z,68.76
2019-04-27T11:02:58.973Z,68.38
2019-04-27T11:05:03.153Z,69.71
2019-04-27T11:06:03.390Z,69.81
2019-04-27T11:08:07.563Z,68.85
2019-04-27T11:09:07.812Z,69.23
2019-04-27T11:11:11.957Z,68.76
2019-04-27T11:12:12.196Z,68.95
2019-04-27T11:14:16.370Z,69.14
2019-04-27T11:15:16.607Z,68.47
2019-04-27T11:17:20.759Z,69.52
2019-04-27T11:18:20.995Z,69.62
2019-04-27T11:20:27.563Z,67.99
2019-04-27T11:21:26.175Z,68.95
2019-04-27T11:23:29.577Z,68.95
2019-04-27T11:24:29.810Z,68.85
2019-04-27T11:26:33.963Z,69.04
2019-04-27T11:27:34.205Z,69.04
2019-04-27T11:29:38.377Z,69.43
2019-04-27T11:30:38.613Z,68.95
2019-04-27T11:32:42.765Z,69.90
2019-04-27T11:33:43.016Z,70.53
2019-04-27T11:35:47.180Z,71.43
2019-04-27T11:36:47.425Z,72.00
2019-04-27T11:38:51.594Z,71.43
2019-04-27T11:39:51.833Z,71.81
2019-04-27T11:41:44.918Z,71.84
2019-04-27T11:42:45.161Z,71.52
2019-04-27T11:44:49.329Z,71.56
2019-04-27T11:45:49.571Z,70.61
2019-04-27T11:47:55.327Z,71.08
2019-04-27T11:48:53.964Z,71.66
2019-04-27T11:50:58.137Z,70.95
2019-04-27T11:51:58.376Z,71.52
2019-04-27T11:54:02.549Z,71.43
2019-04-27T11:55:02.788Z,70.76
2019-04-27T11:57:06.941Z,72.09
2019-04-27T11:58:07.180Z,73.68
2019-04-27T12:00:11.866Z,72.82
2019-04-27T12:01:12.130Z,72.53
2019-04-27T12:03:17.751Z,72.53
2019-04-27T12:04:17.989Z,73.01
2019-04-27T12:06:23.672Z,72.92
2019-04-27T12:07:23.912Z,72.72
2019-04-27T12:09:28.091Z,72.72
2019-04-27T12:10:28.335Z,72.44
2019-04-27T12:12:32.490Z,73.01
2019-04-27T12:13:32.732Z,72.72
2019-04-27T12:15:36.917Z,72.63
2019-04-27T12:16:37.158Z,72.53
2019-04-27T12:18:41.320Z,72.25
2019-04-27T12:19:41.556Z,71.96
2019-04-27T12:21:36.234Z,71.04
2019-04-27T12:22:34.900Z,70.86
2019-04-27T12:24:39.078Z,72.00
2019-04-27T12:25:39.316Z,69.65
2019-04-27T12:27:43.469Z,72.80
2019-04-27T12:28:43.708Z,70.42
2019-04-27T12:30:47.888Z,71.66
2019-04-27T12:31:49.099Z,68.98
2019-04-27T12:33:52.302Z,69.46
2019-04-27T12:34:52.520Z,68.41
2019-04-27T12:36:56.699Z,68.92
2019-04-27T12:37:56.939Z,69.78
2019-04-27T12:40:01.097Z,71.37
2019-04-27T12:41:01.334Z,69.65
2019-04-27T12:43:05.526Z,68.22
2019-04-27T12:44:07.133Z,70.03
2019-04-27T12:46:09.949Z,68.41
2019-04-27T12:47:10.189Z,69.56
2019-04-27T12:49:16.011Z,66.78
2019-04-27T12:50:14.583Z,65.83
2019-04-27T12:52:18.756Z,68.03
2019-04-27T12:53:18.997Z,70.32
2019-04-27T12:55:23.179Z,68.88
2019-04-27T12:56:23.417Z,66.31
2019-04-27T12:58:27.574Z,63.92
2019-04-27T12:59:27.813Z,69.08
2019-04-27T13:01:20.918Z,65.70
2019-04-27T13:02:21.156Z,64.65
2019-04-27T13:04:25.320Z,66.47
2019-04-27T13:05:25.890Z,66.47
2019-04-27T13:07:29.736Z,61.41
2019-04-27T13:08:29.974Z,64.62
2019-04-27T13:10:34.148Z,60.91
2019-04-27T13:11:34.387Z,59.95
2019-04-27T13:13:38.539Z,60.24
2019-04-27T13:14:38.785Z,60.81
2019-04-27T13:16:42.954Z,58.81
2019-04-27T13:17:43.190Z,58.72
2019-04-27T13:19:47.339Z,57.57
2019-04-27T13:20:47.579Z,57.38
2019-04-27T13:22:51.751Z,57.48
2019-04-27T13:24:02.016Z,56.62
2019-04-27T13:25:56.514Z,56.55
2019-04-27T13:26:56.400Z,57.60
2019-04-27T13:29:00.555Z,58.84
2019-04-27T13:30:00.792Z,57.31
2019-04-27T13:31:55.779Z,55.98
2019-04-27T13:32:56.116Z,56.96
2019-04-27T13:34:58.285Z,57.63
2019-04-27T13:35:58.528Z,59.79
2019-04-27T13:38:02.703Z,57.60
2019-04-27T13:39:02.937Z,57.98
2019-04-27T13:41:07.087Z,57.60
2019-04-27T13:42:07.331Z,55.79
2019-04-27T13:44:11.501Z,56.26
2019-04-27T13:45:11.741Z,56.46
2019-04-27T13:47:17.186Z,57.50
2019-04-27T13:48:16.152Z,57.79
2019-04-27T13:50:20.306Z,60.97
2019-04-27T13:51:20.544Z,60.21
2019-04-27T13:53:26.249Z,59.06
2019-04-27T13:54:27.218Z,57.43
2019-04-27T13:56:29.116Z,60.11
2019-04-27T13:57:29.355Z,56.17
2019-04-27T13:59:33.526Z,58.75
2019-04-27T14:00:34.775Z,58.26
2019-04-27T14:02:37.941Z,57.22
2019-04-27T14:03:38.188Z,56.65
2019-04-27T14:05:42.333Z,52.73
2019-04-27T14:06:42.575Z,54.17
2019-04-27T14:08:46.746Z,54.74
2019-04-27T14:09:48.615Z,54.55
2019-04-27T14:11:40.063Z,53.85
2019-04-27T14:12:40.304Z,53.95
2019-04-27T14:14:44.477Z,52.90
2019-04-27T14:15:44.716Z,58.33
2019-04-27T14:17:49.966Z,54.43
2019-04-27T14:18:49.131Z,53.00
2019-04-27T14:20:53.290Z,52.33
2019-04-27T14:21:53.530Z,50.32
2019-04-27T14:23:58.606Z,50.04
2019-04-27T14:24:58.480Z,48.90
2019-04-27T14:27:02.090Z,45.47
2019-04-27T14:28:02.328Z,45.18
2019-04-27T14:30:06.503Z,43.27
2019-04-27T14:31:06.745Z,43.46
2019-04-27T14:33:10.924Z,42.22
2019-04-27T14:34:11.167Z,41.84
2019-04-27T14:36:15.318Z,42.13
2019-04-27T14:37:15.554Z,41.16
2019-04-27T14:39:19.723Z,39.06
2019-04-27T14:40:19.961Z,38.87
2019-04-27T14:42:24.115Z,38.96
2019-04-27T14:43:24.353Z,38.87
2019-04-27T14:45:28.694Z,38.49
2019-04-27T14:46:30.510Z,37.34
2019-04-27T14:48:32.929Z,37.73
2019-04-27T14:49:33.168Z,37.92
2019-04-27T14:51:26.246Z,36.58
2019-04-27T14:52:26.485Z,36.77
2019-04-27T14:54:45.135Z,38.03
2019-04-27T14:55:30.894Z,37.08
2019-04-27T14:57:35.073Z,38.12
2019-04-27T14:58:35.310Z,37.08
2019-04-27T15:00:39.460Z,36.88
2019-04-27T15:01:40.147Z,36.32
2019-04-27T15:03:43.877Z,36.41
2019-04-27T15:04:45.547Z,34.41
2019-04-27T15:06:48.257Z,36.58
2019-04-27T15:07:48.500Z,38.07
2019-04-27T15:09:54.445Z,33.77
2019-04-27T15:10:53.951Z,31.10
2019-04-27T15:12:57.087Z,29.66
2019-04-27T15:14:00.099Z,27.76
2019-04-27T15:16:02.604Z,28.14
2019-04-27T15:17:01.721Z,26.62
2019-04-27T15:19:05.886Z,25.48
2019-04-27T15:20:06.121Z,24.91
2019-04-27T15:22:01.199Z,24.43
2019-04-27T15:23:00.151Z,24.34
2019-04-27T15:25:12.461Z,23.48
2019-04-27T15:26:03.854Z,24.24
2019-04-27T15:28:12.113Z,22.25
2019-04-27T15:29:08.223Z,22.15
2019-04-27T15:31:22.145Z,23.29
2019-04-27T15:32:12.634Z,21.96
2019-04-27T15:34:16.801Z,22.06
2019-04-27T15:35:19.631Z,20.53
2019-04-27T15:37:21.182Z,19.68
2019-04-27T15:38:21.419Z,19.01
2019-04-27T15:40:25.586Z,18.16
2019-04-27T15:41:28.920Z,18.44
2019-04-27T15:43:30.898Z,16.54
2019-04-27T15:44:30.204Z,15.78
2019-04-27T15:46:35.022Z,15.31
2019-04-27T15:47:34.606Z,15.59
2019-04-27T15:49:45.007Z,15.69
2019-04-27T15:50:39.015Z,15.69
2019-04-27T15:52:43.171Z,17.49
2019-04-27T15:53:45.956Z,15.97
2019-04-27T15:55:49.572Z,15.50
2019-04-27T15:56:47.811Z,15.11
2019-04-27T15:58:55.637Z,13.69
2019-04-27T15:59:52.192Z,14.92
2019-04-27T16:01:45.295Z,13.78
2019-04-27T16:02:49.394Z,12.93
2019-04-27T16:04:53.374Z,14.92
2019-04-27T16:05:49.931Z,13.88
2019-04-27T16:07:54.079Z,11.88
2019-04-27T16:08:54.314Z,12.45
2019-04-27T16:10:58.914Z,12.26
2019-04-27T16:12:09.561Z,12.45
2019-04-27T16:14:06.302Z,12.36
2019-04-27T16:15:05.134Z,11.98
2019-04-27T16:17:10.470Z,10.36
2019-04-27T16:18:08.783Z,9.50
2019-04-27T16:20:11.668Z,10.36
2019-04-27T16:21:11.903Z,13.69
2019-04-27T16:23:18.058Z,14.45
2019-04-27T16:24:17.003Z,13.21
2019-04-27T16:26:20.460Z,13.12
2019-04-27T16:27:20.699Z,12.64
2019-04-27T16:29:28.005Z,13.50
2019-04-27T16:30:25.086Z,14.26
2019-04-27T16:32:29.255Z,14.83
2019-04-27T16:33:29.490Z,13.02
2019-04-27T16:35:33.663Z,11.70
2019-04-27T16:36:37.849Z,11.13
2019-04-27T16:38:38.804Z,16.83
2019-04-27T16:39:40.908Z,15.69
2019-04-27T16:41:32.974Z,15.12
2019-04-27T16:42:31.623Z,15.50
2019-04-27T16:44:35.771Z,15.60
2019-04-27T16:45:36.008Z,15.78
2019-04-27T16:47:40.180Z,15.21
2019-04-27T16:48:40.417Z,15.50
2019-04-27T16:50:44.583Z,23.86
2019-04-27T16:51:44.825Z,23.48
2019-04-27T16:53:48.970Z,18.26
2019-04-27T16:54:49.809Z,18.64
2019-04-27T16:57:02.184Z,23.30
2019-04-27T16:57:53.608Z,23.40
2019-04-27T17:01:00.152Z,24.82
2019-04-27T17:03:03.321Z,24.63
2019-04-27T17:04:02.405Z,21.21
2019-04-27T17:06:07.922Z,19.12
2019-04-27T17:07:08.702Z,19.50
2019-04-27T17:09:11.765Z,17.49
2019-04-27T17:10:11.194Z,15.02
2019-04-27T17:12:15.366Z,15.50
2019-04-27T17:12:40.261Z,23.59
2019-04-27T17:13:15.604Z,16.64
2019-04-27T17:15:19.750Z,14.73
2019-04-27T17:16:19.987Z,18.44
2019-04-27T17:18:25.459Z,17.68
2019-04-27T17:19:24.390Z,16.16
2019-04-27T17:21:21.155Z,13.88
2019-04-27T17:22:18.311Z,14.73
2019-04-27T17:24:21.879Z,13.02
2019-04-27T17:25:23.449Z,13.31
2019-04-27T17:27:29.168Z,15.77
2019-04-27T17:28:26.510Z,16.35
2019-04-27T17:30:37.231Z,13.96
2019-04-27T17:31:30.902Z,14.44
2019-04-27T17:33:35.065Z,14.15
2019-04-27T17:34:35.306Z,14.73
2019-04-27T17:36:40.307Z,12.26
2019-04-27T17:37:39.708Z,11.02
2019-04-27T17:39:43.860Z,9.78
2019-04-27T17:40:44.100Z,9.03
2019-04-27T17:42:48.288Z,7.70
2019-04-27T17:43:48.504Z,8.17
2019-04-27T17:45:52.650Z,9.31
2019-04-27T17:46:52.887Z,6.56
2019-04-27T17:48:58.595Z,7.79
2019-04-27T17:49:58.371Z,8.64
2019-04-27T17:51:50.394Z,7.31
2019-04-27T17:52:54.759Z,7.41
2019-04-27T17:54:54.782Z,6.37
2019-04-27T17:55:59.686Z,6.65
2019-04-27T17:58:05.105Z,7.03
2019-04-27T17:58:59.431Z,6.37
2019-04-27T18:01:03.577Z,6.37
2019-04-27T18:02:04.672Z,5.98
2019-04-27T18:04:10.505Z,6.46
2019-04-27T18:05:09.509Z,7.03
2019-04-27T18:07:12.381Z,5.04
2019-04-27T18:08:17.475Z,4.56
2019-04-27T18:10:22.394Z,2.94
2019-04-27T18:11:18.611Z,3.13
2019-04-27T18:13:25.647Z,2.85
2019-04-27T18:14:21.406Z,2.84
2019-04-27T18:16:30.311Z,2.28
2019-04-27T18:17:25.787Z,2.19
2019-04-27T18:19:29.956Z,2.75
2019-04-27T18:20:30.193Z,2.56
2019-04-27T18:22:36.451Z,1.80
2019-04-27T18:23:34.596Z,1.90
2019-04-27T18:25:40.363Z,1.61
2019-04-27T18:26:49.081Z,0.85
2019-04-27T18:28:45.876Z,0.95
2019-04-27T18:29:43.385Z,0.38
2019-04-27T18:31:38.228Z,0.38
2019-04-27T18:32:37.932Z,0.00
2019-04-27T18:34:40.875Z,0.00
2019-04-27T18:35:41.107Z,0.00
2019-04-27T18:37:45.278Z,0.19
2019-04-27T18:38:45.510Z,0.09
2019-04-27T18:40:49.664Z,0.09
2019-04-27T18:41:54.088Z,0.00
2019-04-27T18:43:55.842Z,0.00
2019-04-27T18:44:54.311Z,0.00
2019-04-27T18:47:02.187Z,0.57
2019-04-27T18:47:59.371Z,0.85
2019-04-27T18:50:11.136Z,3.23
2019-04-27T18:51:03.093Z,3.80
2019-04-27T18:53:08.230Z,4.65
2019-04-27T18:54:08.127Z,6.17
2019-04-27T18:56:11.646Z,6.84
2019-04-27T18:57:15.203Z,7.60
2019-04-27T18:59:16.051Z,6.84
2019-04-27T19:00:16.282Z,6.55
2019-04-27T19:02:20.433Z,5.03
2019-04-27T19:03:20.667Z,4.08
2019-04-27T19:05:37.270Z,3.89
2019-04-27T19:06:25.070Z,3.61
2019-04-27T19:08:29.217Z,3.13
2019-04-27T19:09:29.451Z,3.32
2019-04-27T19:11:22.548Z,2.75
2019-04-27T19:12:22.787Z,2.37
2019-04-27T19:14:28.285Z,2.94
2019-04-27T19:15:28.586Z,2.56
2019-04-27T19:17:31.339Z,2.56
2019-04-27T19:18:31.570Z,2.84
2019-04-27T19:20:35.734Z,2.94
2019-04-27T19:21:35.970Z,2.75
2019-04-27T19:23:40.431Z,2.56
2019-04-27T19:24:40.353Z,1.52
2019-04-27T19:26:44.519Z,1.04
2019-04-27T19:27:44.754Z,0.76
2019-04-27T19:29:48.922Z,0.76
2019-04-27T19:30:49.156Z,0.00
2019-04-27T19:32:53.299Z,0.19
2019-04-27T19:33:53.535Z,0.09
2019-04-27T19:35:58.383Z,0.00
2019-04-27T19:36:59.195Z,0.00
2019-04-27T19:39:02.084Z,0.00
2019-04-27T19:40:02.318Z,0.00
2019-04-27T19:42:00.311Z,0.00
2019-04-27T19:42:55.649Z,0.00
2019-04-27T19:44:59.819Z,0.00
2019-04-27T19:46:00.058Z,0.00
2019-04-27T19:48:04.201Z,0.00